KBTR/BTR METAR and TAF weather

Enter ICAO airport designator
Station Type Date Time Source
KBTR METAR 2022/09/26 08:53 UTC NOAA

KBTR 260853Z 28004KT 7SM CLR 23/22 A2991 RMK AO2 SLP126 T02330222 57007


Station Type Date Time Source
KBTR Decoded METAR 2022/09/26 08:53 UTC NOAA

BATON ROUGE METRO RYAN FIELD, LA, United States (KBTR) 30-32N 91-09W 21M
Sep 26, 2022 - 04:53 AM EDT / 2022.09.26 0853 UTC
Wind: from the W (280 degrees) at 5 MPH (4 KT):0
Visibility: 7 mile(s):0
Sky conditions: clear
Temperature: 73.9 F (23.3 C)
Dew Point: 72.0 F (22.2 C)
Relative Humidity: 93%
Pressure (altimeter): 29.91 in. Hg (1012 hPa)
Pressure tendency: 0.02 inches (0.7 hPa) lower than three hours ago
ob: KBTR 260853Z 28004KT 7SM CLR 23/22 A2991 RMK AO2 SLP126 T02330222 57007
cycle: 9

Station Type Date Time Source
KBTR TAF 2022/09/26 06:22 UTC NOAA

TAF KBTR 260520Z 2606/2706 33005KT P6SM FEW250

Example: see airport list